createdAt,value
2023-01-27T00:01:36.479Z,100.00
2023-01-27T00:04:05.168Z,100.00
2023-01-27T00:06:36.851Z,100.00
2023-01-27T00:09:06.026Z,100.00
2023-01-27T00:11:52.983Z,100.00
2023-01-27T00:14:22.637Z,100.00
2023-01-27T00:16:51.114Z,100.00
2023-01-27T00:19:19.597Z,100.00
2023-01-27T00:22:06.337Z,100.00
2023-01-27T00:24:38.096Z,100.00
2023-01-27T00:27:08.977Z,100.00
2023-01-27T00:29:40.544Z,100.00
2023-01-27T00:32:28.811Z,100.00
2023-01-27T00:34:57.719Z,100.00
2023-01-27T00:37:27.016Z,100.00
2023-01-27T00:39:56.339Z,100.00
2023-01-27T00:42:25.034Z,100.00
2023-01-27T00:45:12.114Z,100.00
2023-01-27T00:47:41.904Z,100.00
2023-01-27T00:50:12.127Z,100.00
2023-01-27T00:52:40.877Z,100.00
2023-01-27T00:55:10.384Z,100.00
2023-01-27T00:57:39.410Z,100.00
2023-01-27T01:00:11.367Z,100.00
2023-01-27T01:02:39.933Z,100.00
2023-01-27T01:05:09.837Z,100.00
2023-01-27T01:07:38.433Z,100.00
2023-01-27T01:10:11.859Z,100.00
2023-01-27T01:12:40.687Z,100.00
2023-01-27T01:15:10.639Z,100.00
2023-01-27T01:17:40.390Z,100.00
2023-01-27T01:20:12.057Z,100.00
2023-01-27T01:22:40.711Z,100.00
2023-01-27T01:25:09.775Z,100.00
2023-01-27T01:27:38.172Z,100.00
2023-01-27T01:30:10.230Z,100.00
2023-01-27T01:32:38.772Z,100.00
2023-01-27T01:35:08.621Z,100.00
2023-01-27T01:37:37.077Z,100.00
2023-01-27T01:40:11.793Z,99.99
2023-01-27T01:42:54.577Z,99.91
2023-01-27T01:45:49.207Z,99.98
2023-01-27T01:48:23.038Z,100.00
2023-01-27T01:50:57.709Z,100.00
2023-01-27T01:53:32.421Z,99.79
2023-01-27T01:56:06.262Z,99.16
2023-01-27T01:58:36.373Z,99.10
2023-01-27T02:01:06.693Z,98.96
2023-01-27T02:03:39.455Z,98.62
2023-01-27T02:06:07.078Z,98.15
2023-01-27T02:08:39.933Z,97.27
2023-01-27T02:11:08.530Z,97.00
2023-01-27T02:13:39.954Z,97.03
2023-01-27T02:16:11.626Z,97.47
2023-01-27T02:18:41.899Z,97.03
2023-01-27T02:21:10.865Z,96.36
2023-01-27T02:23:55.147Z,96.89
2023-01-27T02:26:28.617Z,96.40
2023-01-27T02:28:58.710Z,96.01
2023-01-27T02:31:27.897Z,95.92
2023-01-27T02:34:03.075Z,96.24
2023-01-27T02:36:34.339Z,96.03
2023-01-27T02:39:05.023Z,95.80
2023-01-27T02:41:37.336Z,95.25
2023-01-27T02:44:06.602Z,95.19
2023-01-27T02:46:35.401Z,95.17
2023-01-27T02:49:04.499Z,95.25
2023-01-27T02:51:32.917Z,95.13
2023-01-27T02:54:01.366Z,95.23
2023-01-27T02:56:30.300Z,95.10
2023-01-27T02:58:59.053Z,95.62
2023-01-27T03:01:32.983Z,96.29
2023-01-27T03:04:01.632Z,95.75
2023-01-27T03:06:30.185Z,95.47
2023-01-27T03:08:59.215Z,95.30
2023-01-27T03:11:48.992Z,95.29
2023-01-27T03:14:17.519Z,95.15
2023-01-27T03:17:06.973Z,95.48
2023-01-27T03:19:35.416Z,96.04
2023-01-27T03:22:04.468Z,96.09
2023-01-27T03:24:34.439Z,96.31
2023-01-27T03:27:06.299Z,96.67
2023-01-27T03:30:01.099Z,97.07
2023-01-27T03:32:32.952Z,97.21
2023-01-27T03:35:33.529Z,96.63
2023-01-27T03:38:21.065Z,96.93
2023-01-27T03:41:07.421Z,97.43
2023-01-27T03:43:54.161Z,97.54
2023-01-27T03:46:22.772Z,97.30
2023-01-27T03:48:55.052Z,97.39
2023-01-27T03:51:24.895Z,96.90
2023-01-27T03:53:53.539Z,96.70
2023-01-27T03:56:22.390Z,96.13
2023-01-27T03:58:50.999Z,96.35
2023-01-27T04:01:21.806Z,96.98
2023-01-27T04:04:09.476Z,97.22
2023-01-27T04:06:53.461Z,96.49
2023-01-27T04:09:23.645Z,95.90
2023-01-27T04:11:55.671Z,95.97
2023-01-27T04:14:25.993Z,96.84
2023-01-27T04:16:56.821Z,96.35
2023-01-27T04:19:25.531Z,96.14
2023-01-27T04:21:54.869Z,96.78
2023-01-27T04:24:24.061Z,97.05
2023-01-27T04:26:55.561Z,96.90
2023-01-27T04:29:26.108Z,96.82
2023-01-27T04:31:55.241Z,96.70
2023-01-27T04:34:24.021Z,96.66
2023-01-27T04:36:52.868Z,96.65
2023-01-27T04:39:21.752Z,96.65
2023-01-27T04:41:50.924Z,96.87
2023-01-27T04:44:19.745Z,97.13
2023-01-27T04:46:48.661Z,97.91
2023-01-27T04:49:17.664Z,98.23
2023-01-27T04:51:47.451Z,98.23
2023-01-27T04:54:16.982Z,98.03
2023-01-27T04:56:56.840Z,97.84
2023-01-27T04:59:26.070Z,98.06
2023-01-27T05:01:54.577Z,98.31
2023-01-27T05:04:24.752Z,97.93
2023-01-27T05:06:53.519Z,97.58
2023-01-27T05:09:22.383Z,97.98
2023-01-27T05:11:50.888Z,97.56
2023-01-27T05:14:22.734Z,98.13
2023-01-27T05:16:51.996Z,98.02
2023-01-27T05:19:20.428Z,98.29
2023-01-27T05:21:48.795Z,98.91
2023-01-27T05:24:17.290Z,99.25
2023-01-27T05:26:45.944Z,99.65
2023-01-27T05:29:14.257Z,99.54
2023-01-27T05:31:42.625Z,99.47
2023-01-27T05:34:11.034Z,99.03
2023-01-27T05:36:39.421Z,99.79
2023-01-27T05:39:10.985Z,100.00
2023-01-27T05:41:39.345Z,100.00
2023-01-27T05:44:09.916Z,100.00
2023-01-27T05:46:40.862Z,100.00
2023-01-27T05:49:09.634Z,100.00
2023-01-27T05:51:39.326Z,100.00
2023-01-27T05:54:08.656Z,100.00
2023-01-27T05:56:37.378Z,100.00
2023-01-27T05:59:06.223Z,100.00
2023-01-27T06:01:36.785Z,100.00
2023-01-27T06:04:05.667Z,100.00
2023-01-27T06:06:34.880Z,100.00
2023-01-27T06:09:03.356Z,100.00
2023-01-27T06:11:31.731Z,100.00
2023-01-27T06:14:00.047Z,100.00
2023-01-27T06:16:28.898Z,100.00
2023-01-27T06:18:57.839Z,100.00
2023-01-27T06:21:26.221Z,100.00
2023-01-27T06:23:55.247Z,100.00
2023-01-27T06:26:23.664Z,100.00
2023-01-27T06:28:52.084Z,100.00
2023-01-27T06:31:22.344Z,100.00
2023-01-27T06:33:52.081Z,100.00
2023-01-27T06:36:21.934Z,100.00
2023-01-27T06:38:50.994Z,100.00
2023-01-27T06:41:20.906Z,100.00
2023-01-27T06:43:49.353Z,100.00
2023-01-27T06:46:18.134Z,100.00
2023-01-27T06:48:46.959Z,100.00
2023-01-27T06:51:15.784Z,100.00
2023-01-27T06:53:44.231Z,100.00
2023-01-27T06:56:12.717Z,100.00
2023-01-27T06:58:42.441Z,100.00
2023-01-27T07:01:11.169Z,100.00
2023-01-27T07:03:39.550Z,100.00
2023-01-27T07:06:10.253Z,100.00
2023-01-27T07:08:38.757Z,100.00
2023-01-27T07:11:07.668Z,100.00
2023-01-27T07:13:36.125Z,100.00
2023-01-27T07:16:05.910Z,100.00
2023-01-27T07:18:34.727Z,100.00
2023-01-27T07:21:05.114Z,100.00
2023-01-27T07:23:33.875Z,100.00
2023-01-27T07:26:05.728Z,100.00
2023-01-27T07:28:40.992Z,100.00
2023-01-27T07:31:09.949Z,100.00
2023-01-27T07:33:38.671Z,100.00
2023-01-27T07:36:07.492Z,100.00
2023-01-27T07:38:35.873Z,100.00
2023-01-27T07:41:06.049Z,100.00
2023-01-27T07:43:34.821Z,100.00
2023-01-27T07:46:09.373Z,100.00
2023-01-27T07:48:37.832Z,100.00
2023-01-27T07:51:06.295Z,100.00
2023-01-27T07:53:35.177Z,100.00
2023-01-27T07:56:03.908Z,100.00
2023-01-27T07:58:32.278Z,100.00
2023-01-27T08:01:05.682Z,100.00
2023-01-27T08:03:35.260Z,100.00
2023-01-27T08:06:06.250Z,100.00
2023-01-27T08:08:37.227Z,100.00
2023-01-27T08:11:08.749Z,100.00
2023-01-27T08:13:37.387Z,100.00
2023-01-27T08:16:08.143Z,100.00
2023-01-27T08:18:36.684Z,100.00
2023-01-27T08:21:07.847Z,100.00
2023-01-27T08:23:36.912Z,100.00
2023-01-27T08:26:06.946Z,100.00
2023-01-27T08:28:37.145Z,99.78
2023-01-27T08:31:07.762Z,99.83
2023-01-27T08:33:36.963Z,100.00
2023-01-27T08:36:08.417Z,100.00
2023-01-27T08:38:37.957Z,100.00
2023-01-27T08:41:07.846Z,100.00
2023-01-27T08:43:36.608Z,100.00
2023-01-27T08:46:08.399Z,100.00
2023-01-27T08:48:38.209Z,100.00
2023-01-27T08:51:08.700Z,100.00
2023-01-27T08:53:37.819Z,100.00
2023-01-27T08:56:10.563Z,100.00
2023-01-27T08:58:39.245Z,100.00
2023-01-27T09:01:07.874Z,99.95
2023-01-27T09:03:36.930Z,99.94
2023-01-27T09:06:09.029Z,99.72
2023-01-27T09:08:37.818Z,99.68
2023-01-27T09:11:10.958Z,99.69
2023-01-27T09:13:39.797Z,98.99
2023-01-27T09:16:10.001Z,97.97
2023-01-27T09:18:38.690Z,97.68
2023-01-27T09:21:07.424Z,97.71
2023-01-27T09:23:35.794Z,98.17
2023-01-27T09:26:04.716Z,98.07
2023-01-27T09:28:33.636Z,97.32
2023-01-27T09:31:02.367Z,96.48
2023-01-27T09:33:31.007Z,96.21
2023-01-27T09:36:03.002Z,95.39
2023-01-27T09:38:36.226Z,94.77
2023-01-27T09:41:22.939Z,94.12
2023-01-27T09:44:11.874Z,92.93
2023-01-27T09:46:59.545Z,92.28
2023-01-27T09:49:49.529Z,92.07
2023-01-27T09:52:47.281Z,91.67
2023-01-27T09:55:25.849Z,90.66
2023-01-27T09:58:04.393Z,90.79
2023-01-27T10:00:45.869Z,88.87
2023-01-27T10:03:33.649Z,88.19
2023-01-27T10:06:28.383Z,86.26
2023-01-27T10:09:28.298Z,84.99
2023-01-27T10:12:05.480Z,84.82
2023-01-27T10:14:43.155Z,84.82
2023-01-27T10:17:25.646Z,84.45
2023-01-27T10:20:18.742Z,83.94
2023-01-27T10:22:52.815Z,83.67
2023-01-27T10:25:34.918Z,83.66
2023-01-27T10:28:10.869Z,83.35
2023-01-27T10:30:49.811Z,82.80
2023-01-27T10:33:20.300Z,83.06
2023-01-27T10:35:52.993Z,82.58
2023-01-27T10:38:34.555Z,82.52
2023-01-27T10:41:16.230Z,82.70
2023-01-27T10:43:58.745Z,82.85
2023-01-27T10:46:34.305Z,83.30
2023-01-27T10:49:07.964Z,83.89
2023-01-27T10:51:42.298Z,84.41
2023-01-27T10:54:17.327Z,83.94
2023-01-27T10:56:51.111Z,84.26
2023-01-27T10:59:26.196Z,84.54
2023-01-27T11:02:00.033Z,85.49
2023-01-27T11:04:38.332Z,85.18
2023-01-27T11:07:07.308Z,85.36
2023-01-27T11:09:49.159Z,84.93
2023-01-27T11:12:25.294Z,84.86
2023-01-27T11:14:54.435Z,84.86
2023-01-27T11:17:31.764Z,84.39
2023-01-27T11:20:12.415Z,83.75
2023-01-27T11:22:53.239Z,83.91
2023-01-27T11:25:28.228Z,83.58
2023-01-27T11:28:24.759Z,83.23
2023-01-27T11:31:02.694Z,82.86
2023-01-27T11:33:45.611Z,82.99
2023-01-27T11:36:16.322Z,83.40
2023-01-27T11:38:45.295Z,82.59
2023-01-27T11:41:14.415Z,83.08
2023-01-27T11:43:43.244Z,82.77
2023-01-27T11:46:17.830Z,82.73
2023-01-27T11:48:50.956Z,82.82
2023-01-27T11:51:25.095Z,82.91
2023-01-27T11:54:02.948Z,83.08
2023-01-27T11:56:34.373Z,83.58
2023-01-27T11:59:10.831Z,83.67
2023-01-27T12:01:47.474Z,83.77
2023-01-27T12:04:23.970Z,83.86
2023-01-27T12:06:59.302Z,84.40
2023-01-27T12:09:34.489Z,85.05
2023-01-27T12:12:22.908Z,85.05
2023-01-27T12:14:54.304Z,85.07
2023-01-27T12:17:33.061Z,85.02
2023-01-27T12:20:06.491Z,84.87
2023-01-27T12:22:40.143Z,84.92
2023-01-27T12:25:20.049Z,84.67
2023-01-27T12:27:52.752Z,84.75
2023-01-27T12:30:22.024Z,84.82
2023-01-27T12:32:51.867Z,84.21
2023-01-27T12:35:27.607Z,83.80
2023-01-27T12:38:01.502Z,83.69
2023-01-27T12:40:32.299Z,84.25
2023-01-27T12:43:13.855Z,84.15
2023-01-27T12:45:43.841Z,84.25
2023-01-27T12:48:21.265Z,83.82
2023-01-27T12:51:13.690Z,84.41
2023-01-27T12:53:43.473Z,85.14
2023-01-27T12:56:14.607Z,85.08
2023-01-27T12:58:45.745Z,84.70
2023-01-27T13:01:27.655Z,84.59
2023-01-27T13:03:59.834Z,84.20
2023-01-27T13:06:41.932Z,83.91
2023-01-27T13:09:27.594Z,84.05
2023-01-27T13:12:00.296Z,83.96
2023-01-27T13:14:29.097Z,83.76
2023-01-27T13:16:58.635Z,84.15
2023-01-27T13:19:36.177Z,84.56
2023-01-27T13:22:05.791Z,84.82
2023-01-27T13:24:42.281Z,84.94
2023-01-27T13:27:15.420Z,85.16
2023-01-27T13:29:59.676Z,85.45
2023-01-27T13:32:32.823Z,85.37
2023-01-27T13:35:08.242Z,85.03
2023-01-27T13:37:42.045Z,84.58
2023-01-27T13:40:18.582Z,84.60
2023-01-27T13:42:53.075Z,85.14
2023-01-27T13:45:23.978Z,84.80
2023-01-27T13:47:58.128Z,84.40
2023-01-27T13:50:34.053Z,84.28
2023-01-27T13:53:04.046Z,85.02
2023-01-27T13:55:47.002Z,85.72
2023-01-27T13:58:25.628Z,86.36
2023-01-27T14:01:02.101Z,87.55
2023-01-27T14:03:51.986Z,88.69
2023-01-27T14:06:36.089Z,89.40
2023-01-27T14:09:15.816Z,90.21
2023-01-27T14:11:51.275Z,91.52
2023-01-27T14:14:32.196Z,92.34
2023-01-27T14:17:14.247Z,92.93
2023-01-27T14:19:53.513Z,93.28
2023-01-27T14:22:32.764Z,92.93
2023-01-27T14:25:19.471Z,93.38
2023-01-27T14:30:34.566Z,94.95
2023-01-27T14:33:12.102Z,95.53
2023-01-27T14:35:45.617Z,95.64
2023-01-27T14:38:26.479Z,95.76
2023-01-27T14:41:09.983Z,95.97
2023-01-27T14:43:47.685Z,95.30
2023-01-27T14:46:28.818Z,95.34
2023-01-27T14:49:07.605Z,95.63
2023-01-27T14:51:44.134Z,95.60
2023-01-27T14:54:28.372Z,95.27
2023-01-27T14:57:25.899Z,95.40
2023-01-27T15:00:05.023Z,95.12
2023-01-27T15:02:43.826Z,95.24
2023-01-27T15:05:21.944Z,95.45
2023-01-27T15:07:57.915Z,95.90
2023-01-27T15:10:28.466Z,95.83
2023-01-27T15:13:26.471Z,95.76
2023-01-27T15:16:32.952Z,95.73
2023-01-27T15:19:27.258Z,96.11
2023-01-27T15:22:31.256Z,96.10
2023-01-27T15:25:19.640Z,96.26
2023-01-27T15:27:52.447Z,96.61
2023-01-27T15:30:29.319Z,97.29
2023-01-27T15:32:58.096Z,97.28
2023-01-27T15:35:43.902Z,97.31
2023-01-27T15:38:32.448Z,96.85
2023-01-27T15:41:07.525Z,97.00
2023-01-27T15:43:39.987Z,97.23
2023-01-27T15:46:25.089Z,97.62
2023-01-27T15:48:55.670Z,97.49
2023-01-27T15:51:25.138Z,97.29
2023-01-27T15:53:56.522Z,97.29
2023-01-27T15:56:48.113Z,97.62
2023-01-27T15:59:20.668Z,97.81
2023-01-27T16:01:59.005Z,97.87
2023-01-27T16:04:28.975Z,98.29
2023-01-27T16:07:01.458Z,98.80
2023-01-27T16:09:33.676Z,98.68
2023-01-27T16:12:04.686Z,98.43
2023-01-27T16:14:44.273Z,98.81
2023-01-27T16:17:24.651Z,98.61
2023-01-27T16:20:09.706Z,98.63
2023-01-27T16:22:40.540Z,98.68
2023-01-27T16:25:24.641Z,98.94
2023-01-27T16:27:58.943Z,99.15
2023-01-27T16:30:30.869Z,98.65
2023-01-27T16:33:05.712Z,98.49
2023-01-27T16:35:41.919Z,97.99
2023-01-27T16:38:22.832Z,97.62
2023-01-27T16:40:56.346Z,97.69
2023-01-27T16:43:31.070Z,97.76
2023-01-27T16:46:01.400Z,97.71
2023-01-27T16:48:36.024Z,97.68
2023-01-27T16:51:14.828Z,97.78
2023-01-27T16:53:49.027Z,97.72
2023-01-27T16:56:22.167Z,97.57
2023-01-27T16:58:51.826Z,97.54
2023-01-27T17:01:25.535Z,97.53
2023-01-27T17:04:00.626Z,97.94
2023-01-27T17:06:32.394Z,98.28
2023-01-27T17:09:01.801Z,98.30
2023-01-27T17:11:32.688Z,98.33
2023-01-27T17:14:02.696Z,97.56
2023-01-27T17:16:35.021Z,96.33
2023-01-27T17:19:09.009Z,96.54
2023-01-27T17:21:41.917Z,96.08
2023-01-27T17:24:18.408Z,95.76
2023-01-27T17:26:54.655Z,94.57
2023-01-27T17:29:27.056Z,94.13
2023-01-27T17:31:55.745Z,93.73
2023-01-27T17:34:25.017Z,93.09
2023-01-27T17:37:14.411Z,92.64
2023-01-27T17:39:44.499Z,92.34
2023-01-27T17:42:18.505Z,91.55
2023-01-27T17:44:48.542Z,91.53
2023-01-27T17:47:18.780Z,91.20
2023-01-27T17:49:49.530Z,91.05
2023-01-27T17:52:22.355Z,90.67
2023-01-27T17:54:51.899Z,90.39
2023-01-27T17:57:22.508Z,90.52
2023-01-27T18:00:00.675Z,90.67
2023-01-27T18:02:33.296Z,89.68
2023-01-27T18:05:05.251Z,88.78
2023-01-27T18:07:34.493Z,88.34
2023-01-27T18:10:23.745Z,87.84
2023-01-27T18:12:54.131Z,87.18
2023-01-27T18:15:39.044Z,87.27
2023-01-27T18:18:21.161Z,86.94
2023-01-27T18:21:01.945Z,86.51
2023-01-27T18:23:32.830Z,86.57
2023-01-27T18:26:16.389Z,85.90
2023-01-27T18:28:49.571Z,85.16
2023-01-27T18:31:21.627Z,84.15
2023-01-27T18:33:58.818Z,83.56
2023-01-27T18:36:33.965Z,82.15
2023-01-27T18:39:03.289Z,81.98
2023-01-27T18:41:34.761Z,81.64
2023-01-27T18:44:03.053Z,81.61
2023-01-27T18:46:31.646Z,81.82
2023-01-27T18:49:00.508Z,81.97
2023-01-27T18:51:29.295Z,81.84
2023-01-27T18:53:57.603Z,81.85
2023-01-27T18:56:26.168Z,81.94
2023-01-27T18:58:54.530Z,81.48
2023-01-27T19:01:24.224Z,81.13
2023-01-27T19:03:56.483Z,81.20
2023-01-27T19:06:26.065Z,81.09
2023-01-27T19:08:54.516Z,81.05
2023-01-27T19:11:26.059Z,81.28
2023-01-27T19:13:55.077Z,80.60
2023-01-27T19:16:25.700Z,80.81
2023-01-27T19:18:55.804Z,80.23
2023-01-27T19:21:25.006Z,80.62
2023-01-27T19:23:53.531Z,80.54
2023-01-27T19:26:23.577Z,80.22
2023-01-27T19:28:55.158Z,80.32
2023-01-27T19:31:24.622Z,80.09
2023-01-27T19:33:53.408Z,79.70
2023-01-27T19:36:27.307Z,79.61
2023-01-27T19:39:01.243Z,79.58
2023-01-27T19:41:29.712Z,79.18
2023-01-27T19:43:58.368Z,79.20
2023-01-27T19:46:27.103Z,79.25
2023-01-27T19:48:56.176Z,79.15
2023-01-27T19:51:26.191Z,79.23
2023-01-27T19:53:54.632Z,79.03
2023-01-27T19:56:24.683Z,78.68
2023-01-27T19:58:54.348Z,79.12
2023-01-27T20:01:24.214Z,79.53
2023-01-27T20:03:53.628Z,79.42
2023-01-27T20:06:24.479Z,79.33
2023-01-27T20:08:54.567Z,79.24
2023-01-27T20:11:33.507Z,79.22
2023-01-27T20:14:03.139Z,79.58
2023-01-27T20:16:32.400Z,79.45
2023-01-27T20:19:03.876Z,79.16
2023-01-27T20:21:33.784Z,79.65
2023-01-27T20:24:03.761Z,79.76
2023-01-27T20:26:32.764Z,79.60
2023-01-27T20:29:01.077Z,80.02
2023-01-27T20:31:29.780Z,79.94
2023-01-27T20:33:59.225Z,79.50
2023-01-27T20:36:28.067Z,79.41
2023-01-27T20:38:56.339Z,79.53
2023-01-27T20:41:24.991Z,79.29
2023-01-27T20:43:56.453Z,79.53
2023-01-27T20:46:25.318Z,79.46
2023-01-27T20:48:53.989Z,79.41
2023-01-27T20:51:22.496Z,79.68
2023-01-27T20:53:51.287Z,79.40
2023-01-27T20:56:21.873Z,79.82
2023-01-27T20:58:50.797Z,79.75
2023-01-27T21:01:22.005Z,79.78
2023-01-27T21:03:51.233Z,79.88
2023-01-27T21:06:20.436Z,79.76
2023-01-27T21:08:49.863Z,79.72
2023-01-27T21:11:20.677Z,79.63
2023-01-27T21:13:51.473Z,79.27
2023-01-27T21:16:20.470Z,78.79
2023-01-27T21:18:49.248Z,78.55
2023-01-27T21:21:23.726Z,78.63
2023-01-27T21:23:52.699Z,78.39
2023-01-27T21:26:21.896Z,78.06
2023-01-27T21:28:50.674Z,77.92
2023-01-27T21:31:23.551Z,78.01
2023-01-27T21:33:51.976Z,77.70
2023-01-27T21:36:20.397Z,77.49
2023-01-27T21:38:52.285Z,77.97
2023-01-27T21:41:41.415Z,77.99
2023-01-27T21:44:34.814Z,78.12
2023-01-27T21:47:03.219Z,77.42
2023-01-27T21:49:55.795Z,77.12
2023-01-27T21:52:25.583Z,77.30
2023-01-27T21:54:54.190Z,77.67
2023-01-27T21:57:22.844Z,77.63
2023-01-27T21:59:51.452Z,78.02
2023-01-27T22:02:19.832Z,77.74
2023-01-27T22:04:49.402Z,77.85
2023-01-27T22:07:19.702Z,77.67
2023-01-27T22:09:49.656Z,77.76
2023-01-27T22:12:21.454Z,77.90
2023-01-27T22:14:49.999Z,77.81
2023-01-27T22:17:20.117Z,77.84
2023-01-27T22:19:49.277Z,77.76
2023-01-27T22:22:18.601Z,77.88
2023-01-27T22:24:47.120Z,78.18
2023-01-27T22:27:15.472Z,78.08
2023-01-27T22:29:43.918Z,78.07
2023-01-27T22:32:12.695Z,78.08
2023-01-27T22:34:42.770Z,78.45
2023-01-27T22:37:11.163Z,78.15
2023-01-27T22:39:41.505Z,77.71
2023-01-27T22:42:10.680Z,78.14
2023-01-27T22:44:39.614Z,77.67
2023-01-27T22:47:08.079Z,76.28
2023-01-27T22:49:36.443Z,75.63
2023-01-27T22:52:04.971Z,75.80
2023-01-27T22:54:33.314Z,75.81
2023-01-27T22:57:01.892Z,75.32
2023-01-27T22:59:30.295Z,75.59
2023-01-27T23:01:58.789Z,75.52
2023-01-27T23:04:27.316Z,75.62
2023-01-27T23:06:55.852Z,75.73
2023-01-27T23:09:24.527Z,76.22
2023-01-27T23:11:53.171Z,76.48
2023-01-27T23:14:21.854Z,76.12
2023-01-27T23:16:52.093Z,75.68
2023-01-27T23:19:21.558Z,75.74
2023-01-27T23:21:49.877Z,75.50
2023-01-27T23:24:18.616Z,75.70
2023-01-27T23:26:47.546Z,75.95
2023-01-27T23:29:24.704Z,75.96
2023-01-27T23:31:54.107Z,75.58
2023-01-27T23:34:23.058Z,75.47
2023-01-27T23:36:51.441Z,75.56
2023-01-27T23:39:19.998Z,74.98
2023-01-27T23:41:48.428Z,74.79
2023-01-27T23:44:17.252Z,74.77
2023-01-27T23:46:45.745Z,74.98
2023-01-27T23:49:14.774Z,74.73
2023-01-27T23:51:43.115Z,74.78
2023-01-27T23:54:11.505Z,75.10
2023-01-27T23:56:40.768Z,74.85
2023-01-27T23:59:11.019Z,75.21
